Terminal Aerodrome Forecast
Issued by NWS Louisville, KY

Home | Current Version | Previous Version | Text Only | Print | Product List | Glossary On
Versions: 1 2 3 4 5 6 7 8 9 10 11 12 13 14 15 16 17
430
FTUS43 KLMK 231120
TAFBWG
TAF
KBWG 231120Z 2312/2412 11012G20KT P6SM -RA OVC025
     FM231900 12011KT P6SM VCSH OVC035
     FM232100 11009KT P6SM -SHRA OVC035 PROB30 2321/2324 4SM -TSRA
      OVC025CB
     FM240200 10006KT P6SM -SHRA BKN025
     FM240600 00000KT P6SM VCSH OVC015=

USA.gov is the U.S. government's official web portal to all federal, state and local government web resources and services.